createdAt,value
2022-09-23T00:00:17.006Z,25.30
2022-09-23T00:00:49.270Z,29.52
2022-09-23T00:01:21.490Z,45.35
2022-09-23T00:01:57.175Z,28.48
2022-09-23T00:02:29.455Z,41.85
2022-09-23T00:03:01.602Z,51.85
2022-09-23T00:03:38.314Z,37.03
2022-09-23T00:04:10.504Z,16.85
2022-09-23T00:04:43.018Z,25.27
2022-09-23T00:05:18.092Z,23.17
2022-09-23T00:05:58.829Z,29.52
2022-09-23T00:06:30.963Z,26.90
2022-09-23T00:07:05.647Z,27.40
2022-09-23T00:07:38.600Z,25.67
2022-09-23T00:08:12.352Z,34.00
2022-09-23T00:08:47.638Z,25.00
2022-09-23T00:09:19.723Z,22.00
2022-09-23T00:09:51.969Z,31.63
2022-09-23T00:10:28.047Z,27.65
2022-09-23T00:11:05.808Z,21.85
2022-09-23T00:11:38.450Z,26.50
2022-09-23T00:12:13.255Z,17.65
2022-09-23T00:12:45.358Z,15.52
2022-09-23T00:13:17.470Z,18.27
2022-09-23T00:13:53.022Z,23.92
2022-09-23T00:14:30.391Z,23.75
2022-09-23T00:15:02.527Z,13.70
2022-09-23T00:15:38.909Z,20.63
2022-09-23T00:16:16.148Z,21.48
2022-09-23T00:16:48.365Z,23.40
2022-09-23T00:17:20.483Z,12.73
2022-09-23T00:17:56.021Z,16.77
2022-09-23T00:18:28.115Z,21.30
2022-09-23T00:19:01.149Z,21.85
2022-09-23T00:19:35.844Z,29.42
2022-09-23T00:20:09.595Z,22.63
2022-09-23T00:20:41.834Z,18.60
2022-09-23T00:21:14.857Z,22.50
2022-09-23T00:21:49.583Z,27.45
2022-09-23T00:22:21.893Z,23.30
2022-09-23T00:22:53.985Z,37.80
2022-09-23T00:23:28.663Z,30.30
2022-09-23T00:24:01.136Z,29.95
2022-09-23T00:24:36.182Z,30.70
2022-09-23T00:25:09.676Z,22.10
2022-09-23T00:25:41.815Z,18.02
2022-09-23T00:26:19.827Z,26.27
2022-09-23T00:26:51.988Z,22.15
2022-09-23T00:27:24.171Z,28.33
2022-09-23T00:27:59.236Z,24.70
2022-09-23T00:28:32.048Z,30.90
2022-09-23T00:29:04.493Z,14.27
2022-09-23T00:29:41.862Z,28.58
2022-09-23T00:30:13.994Z,19.20
2022-09-23T00:30:46.146Z,35.25
2022-09-23T00:31:23.845Z,22.58
2022-09-23T00:31:56.081Z,26.67
2022-09-23T00:32:28.220Z,15.55
2022-09-23T00:33:02.883Z,27.73
2022-09-23T00:33:34.975Z,29.33
2022-09-23T00:34:07.068Z,28.73
2022-09-23T00:34:41.922Z,26.58
2022-09-23T00:35:14.002Z,38.45
2022-09-23T00:35:46.118Z,21.45
2022-09-23T00:36:18.310Z,26.55
2022-09-23T00:36:53.027Z,32.08
2022-09-23T00:37:25.432Z,28.65
2022-09-23T00:37:57.527Z,16.70
2022-09-23T00:38:34.107Z,30.15
2022-09-23T00:39:06.725Z,29.33
2022-09-23T00:39:38.955Z,28.35
2022-09-23T00:40:14.152Z,15.05
2022-09-23T00:40:46.996Z,19.02
2022-09-23T00:41:19.175Z,16.50
2022-09-23T00:41:54.303Z,19.88
2022-09-23T00:42:26.543Z,19.60
2022-09-23T00:42:58.684Z,17.27
2022-09-23T00:43:39.178Z,21.40
2022-09-23T00:44:44.453Z,17.55
2022-09-23T00:45:19.762Z,29.75
2022-09-23T00:45:51.934Z,19.90
2022-09-23T00:46:31.664Z,29.98
2022-09-23T00:47:04.268Z,17.15
2022-09-23T00:47:44.661Z,18.73
2022-09-23T00:48:57.697Z,28.20
2022-09-23T00:49:33.416Z,29.95
2022-09-23T00:50:10.251Z,29.15
2022-09-23T00:50:46.078Z,19.70
2022-09-23T00:51:25.018Z,19.65
2022-09-23T00:52:02.789Z,21.48
2022-09-23T00:52:35.535Z,25.55
2022-09-23T00:53:15.085Z,17.73
2022-09-23T00:53:50.526Z,26.65
2022-09-23T00:54:29.344Z,25.55
2022-09-23T00:55:03.917Z,23.85
2022-09-23T00:55:40.306Z,22.50
2022-09-23T00:56:16.831Z,25.83
2022-09-23T00:56:48.974Z,27.33
2022-09-23T00:57:21.744Z,28.05
2022-09-23T00:57:59.738Z,27.15
2022-09-23T00:58:34.366Z,24.67
2022-09-23T00:59:08.077Z,29.20
2022-09-23T00:59:43.292Z,18.67
2022-09-23T01:00:15.519Z,25.48
2022-09-23T01:00:50.357Z,17.08
2022-09-23T01:01:27.784Z,20.02
2022-09-23T01:02:02.264Z,33.03
2022-09-23T01:02:35.325Z,30.23
2022-09-23T01:03:12.123Z,21.50
2022-09-23T01:03:46.050Z,38.63
2022-09-23T01:04:19.377Z,28.85
2022-09-23T01:04:54.477Z,25.55
2022-09-23T01:05:26.866Z,26.13
2022-09-23T01:05:59.515Z,29.23
2022-09-23T01:06:34.182Z,16.65
2022-09-23T01:07:06.268Z,28.33
2022-09-23T01:07:38.727Z,19.27
2022-09-23T01:08:13.806Z,28.38
2022-09-23T01:08:50.374Z,15.25
2022-09-23T01:09:24.220Z,25.55
2022-09-23T01:09:58.506Z,15.88
2022-09-23T01:10:37.194Z,28.17
2022-09-23T01:11:26.614Z,16.45
2022-09-23T01:12:12.037Z,26.48
2022-09-23T01:13:13.001Z,20.23
2022-09-23T01:13:58.667Z,31.55
2022-09-23T01:14:40.739Z,28.15
2022-09-23T01:15:18.793Z,20.05
2022-09-23T01:16:03.917Z,23.17
2022-09-23T01:16:43.213Z,29.08
2022-09-23T01:17:27.473Z,27.67
2022-09-23T01:18:06.627Z,10.43
2022-09-23T01:18:49.023Z,17.05
2022-09-23T01:19:41.209Z,14.65
2022-09-23T01:20:44.941Z,24.58
2022-09-23T01:21:37.904Z,23.17
2022-09-23T01:22:17.312Z,30.42
2022-09-23T01:22:57.070Z,24.08
2022-09-23T01:23:55.490Z,30.80
2022-09-23T01:24:58.423Z,14.20
2022-09-23T01:26:04.055Z,20.05
2022-09-23T01:27:13.841Z,26.50
2022-09-23T01:28:02.168Z,33.67
2022-09-23T01:28:53.222Z,35.15
2022-09-23T01:29:52.825Z,18.13
2022-09-23T01:30:44.246Z,24.83
2022-09-23T01:31:24.500Z,26.85
2022-09-23T01:32:03.585Z,20.45
2022-09-23T01:33:09.185Z,26.48
2022-09-23T01:33:49.210Z,22.85
2022-09-23T01:34:25.433Z,16.77
2022-09-23T01:35:08.968Z,19.73
2022-09-23T01:36:21.686Z,22.75
2022-09-23T01:36:58.946Z,38.15
2022-09-23T01:37:37.973Z,34.65
2022-09-23T01:38:22.526Z,42.33
2022-09-23T01:39:00.843Z,50.05
2022-09-23T01:39:37.887Z,31.90
2022-09-23T01:40:19.755Z,22.40
2022-09-23T01:41:01.291Z,21.52
2022-09-23T01:41:56.251Z,31.77
2022-09-23T01:42:35.716Z,15.32
2022-09-23T01:43:14.565Z,27.77
2022-09-23T01:43:57.319Z,32.67
2022-09-23T01:44:33.568Z,17.70
2022-09-23T01:45:11.034Z,23.67
2022-09-23T01:45:54.658Z,29.80
2022-09-23T01:46:30.601Z,33.42
2022-09-23T01:47:11.091Z,26.85
2022-09-23T01:48:22.513Z,18.63
2022-09-23T01:49:05.146Z,26.58
2022-09-23T01:49:44.809Z,24.02
2022-09-23T01:50:35.011Z,25.63
2022-09-23T01:51:12.614Z,24.40
2022-09-23T01:51:52.297Z,40.35
2022-09-23T01:52:28.711Z,21.00
2022-09-23T01:53:06.416Z,29.55
2022-09-23T01:53:43.743Z,17.90
2022-09-23T01:54:24.279Z,16.15
2022-09-23T01:55:03.145Z,20.48
2022-09-23T01:55:40.514Z,37.50
2022-09-23T01:56:21.546Z,24.85
2022-09-23T01:56:59.156Z,22.02
2022-09-23T01:57:35.137Z,38.33
2022-09-23T01:58:13.128Z,27.65
2022-09-23T01:58:51.265Z,25.02
2022-09-23T01:59:29.399Z,20.38
2022-09-23T02:00:08.432Z,32.63
2022-09-23T02:00:53.527Z,18.75
2022-09-23T02:01:32.588Z,26.75
2022-09-23T02:02:15.423Z,24.58
2022-09-23T02:02:51.509Z,30.23
2022-09-23T02:03:28.891Z,30.60
2022-09-23T02:04:08.913Z,30.33
2022-09-23T02:04:47.303Z,38.30
2022-09-23T02:05:26.186Z,22.02
2022-09-23T02:06:06.280Z,25.27
2022-09-23T02:06:42.150Z,39.97
2022-09-23T02:07:18.234Z,27.92
2022-09-23T02:07:59.522Z,21.25
2022-09-23T02:08:38.021Z,36.47
2022-09-23T02:09:15.492Z,28.85
2022-09-23T02:09:56.468Z,23.08
2022-09-23T02:10:33.656Z,22.25
2022-09-23T02:11:08.862Z,24.27
2022-09-23T02:11:46.174Z,21.42
2022-09-23T02:12:21.461Z,17.27
2022-09-23T02:12:57.746Z,26.08
2022-09-23T02:13:40.108Z,29.88
2022-09-23T02:14:17.354Z,19.35
2022-09-23T02:14:55.062Z,44.35
2022-09-23T02:15:32.090Z,24.58
2022-09-23T02:16:13.042Z,27.17
2022-09-23T02:16:50.283Z,21.17
2022-09-23T02:17:29.236Z,21.75
2022-09-23T02:18:05.534Z,16.50
2022-09-23T02:18:46.408Z,33.88
2022-09-23T02:19:22.927Z,34.17
2022-09-23T02:20:01.427Z,18.23
2022-09-23T02:20:40.496Z,30.48
2022-09-23T02:21:15.864Z,23.40
2022-09-23T02:21:55.522Z,19.45
2022-09-23T02:22:35.428Z,40.65
2022-09-23T02:23:12.515Z,32.00
2022-09-23T02:23:50.620Z,34.28
2022-09-23T02:24:30.156Z,28.13
2022-09-23T02:25:03.808Z,39.72
2022-09-23T02:25:45.060Z,21.05
2022-09-23T02:26:23.977Z,111.70
2022-09-23T02:27:05.513Z,30.48
2022-09-23T02:27:44.730Z,16.02
2022-09-23T02:28:24.289Z,37.88
2022-09-23T02:29:04.251Z,28.42
2022-09-23T02:29:48.602Z,30.80
2022-09-23T02:30:27.291Z,61.78
2022-09-23T02:31:08.938Z,18.25
2022-09-23T02:31:48.238Z,30.75
2022-09-23T02:32:24.024Z,34.67
2022-09-23T02:33:04.587Z,37.40
2022-09-23T02:33:45.413Z,35.70
2022-09-23T02:34:22.338Z,32.50
2022-09-23T02:35:01.696Z,50.70
2022-09-23T02:35:42.066Z,24.17
2022-09-23T02:37:02.800Z,27.08
2022-09-23T02:37:44.283Z,38.05
2022-09-23T02:38:23.307Z,29.73
2022-09-23T02:38:58.237Z,30.67
2022-09-23T02:39:38.640Z,17.13
2022-09-23T02:40:23.911Z,22.05
2022-09-23T02:41:00.866Z,25.20
2022-09-23T02:41:43.085Z,19.65
2022-09-23T02:42:24.318Z,26.48
2022-09-23T02:43:05.955Z,19.85
2022-09-23T02:43:48.722Z,39.97
2022-09-23T02:44:23.729Z,23.77
2022-09-23T02:44:56.142Z,26.00
2022-09-23T02:45:31.333Z,39.60
2022-09-23T02:46:07.474Z,32.97
2022-09-23T02:46:41.458Z,22.30
2022-09-23T02:47:16.232Z,15.45
2022-09-23T02:47:53.556Z,18.80
2022-09-23T02:48:32.430Z,25.17
2022-09-23T02:49:12.987Z,24.50
2022-09-23T02:49:45.146Z,22.13
2022-09-23T02:50:18.237Z,31.75
2022-09-23T02:50:53.458Z,28.45
2022-09-23T02:51:25.878Z,28.30
2022-09-23T02:52:01.417Z,19.15
2022-09-23T02:52:36.815Z,33.67
2022-09-23T02:53:09.094Z,38.53
2022-09-23T02:53:41.350Z,32.83
2022-09-23T02:54:18.669Z,23.50
2022-09-23T02:54:51.487Z,27.42
2022-09-23T02:55:25.612Z,18.30
2022-09-23T02:56:00.322Z,21.55
2022-09-23T02:56:32.411Z,30.48
2022-09-23T02:57:07.183Z,42.53
2022-09-23T02:57:42.141Z,33.63
2022-09-23T02:58:14.505Z,20.33
2022-09-23T02:58:47.311Z,32.50
2022-09-23T02:59:23.868Z,27.00
2022-09-23T02:59:56.229Z,39.00
2022-09-23T03:00:35.605Z,28.35
2022-09-23T03:01:24.434Z,36.58
2022-09-23T03:02:34.715Z,18.73
2022-09-23T03:03:23.375Z,25.25
2022-09-23T03:04:07.006Z,52.30
2022-09-23T03:04:47.584Z,38.63
2022-09-23T03:05:27.612Z,27.50
2022-09-23T03:06:05.327Z,27.70
2022-09-23T03:06:50.590Z,21.70
2022-09-23T03:07:34.397Z,35.47
2022-09-23T03:08:28.430Z,35.80
2022-09-23T03:09:09.003Z,63.50
2022-09-23T03:09:54.895Z,39.17
2022-09-23T03:10:35.622Z,42.33
2022-09-23T03:11:13.692Z,39.90
2022-09-23T03:11:53.402Z,45.38
2022-09-23T03:12:36.239Z,36.38
2022-09-23T03:13:19.191Z,47.95
2022-09-23T03:14:05.192Z,39.65
2022-09-23T03:14:49.602Z,21.75
2022-09-23T03:15:31.682Z,38.50
2022-09-23T03:16:19.727Z,24.95
2022-09-23T03:16:57.111Z,27.17
2022-09-23T03:17:37.679Z,48.53
2022-09-23T03:18:20.492Z,27.15
2022-09-23T03:18:58.885Z,21.30
2022-09-23T03:19:35.450Z,30.63
2022-09-23T03:20:15.519Z,23.42
2022-09-23T03:20:51.515Z,26.55
2022-09-23T03:21:30.681Z,23.67
2022-09-23T03:22:11.271Z,37.58
2022-09-23T03:22:47.167Z,42.22
2022-09-23T03:23:25.341Z,46.92
2022-09-23T03:24:02.996Z,36.00
2022-09-23T03:24:38.170Z,20.80
2022-09-23T03:25:16.262Z,19.88
2022-09-23T03:25:54.253Z,45.45
2022-09-23T03:26:31.465Z,22.73
2022-09-23T03:27:13.590Z,22.30
2022-09-23T03:27:48.677Z,34.40
2022-09-23T03:28:22.659Z,58.30
2022-09-23T03:28:57.747Z,44.67
2022-09-23T03:29:32.609Z,42.90
2022-09-23T03:30:07.357Z,52.85
2022-09-23T03:30:43.666Z,25.67
2022-09-23T03:31:18.805Z,35.60
2022-09-23T03:31:51.101Z,45.95
2022-09-23T03:32:28.092Z,30.45
2022-09-23T03:33:03.222Z,37.50
2022-09-23T03:33:38.947Z,30.15
2022-09-23T03:34:16.345Z,29.35
2022-09-23T03:34:53.428Z,35.92
2022-09-23T03:35:29.571Z,35.15
2022-09-23T03:36:22.032Z,37.50
2022-09-23T03:37:03.406Z,21.13
2022-09-23T03:37:42.130Z,20.33
2022-09-23T03:38:17.460Z,35.83
2022-09-23T03:38:56.139Z,58.33
2022-09-23T03:39:34.751Z,41.53
2022-09-23T03:40:12.534Z,33.67
2022-09-23T03:40:51.135Z,33.10
2022-09-23T03:41:30.066Z,33.03
2022-09-23T03:42:09.963Z,20.88
2022-09-23T03:42:42.714Z,18.35
2022-09-23T03:43:14.935Z,33.17
2022-09-23T03:43:49.832Z,28.05
2022-09-23T03:44:22.188Z,21.42
2022-09-23T03:44:59.200Z,27.20
2022-09-23T03:45:33.551Z,32.33
2022-09-23T03:46:08.349Z,39.53
2022-09-23T03:46:49.954Z,34.28
2022-09-23T03:47:23.030Z,22.83
2022-09-23T03:47:55.132Z,44.55
2022-09-23T03:48:30.442Z,29.38
2022-09-23T03:49:10.221Z,30.35
2022-09-23T03:49:45.850Z,33.80
2022-09-23T03:50:21.046Z,42.78
2022-09-23T03:50:53.158Z,37.25
2022-09-23T03:51:25.742Z,20.58
2022-09-23T03:51:58.553Z,70.03
2022-09-23T03:52:33.657Z,25.10
2022-09-23T03:53:05.754Z,42.25
2022-09-23T03:53:38.539Z,40.90
2022-09-23T03:54:13.269Z,45.53
2022-09-23T03:54:53.758Z,36.28
2022-09-23T03:55:26.186Z,62.38
2022-09-23T03:56:01.199Z,67.53
2022-09-23T03:56:33.718Z,40.95
2022-09-23T03:57:07.387Z,49.88
2022-09-23T03:57:42.427Z,47.72
2022-09-23T03:58:14.906Z,49.00
2022-09-23T03:58:47.356Z,50.65
2022-09-23T03:59:23.088Z,39.72
2022-09-23T03:59:55.491Z,44.35
2022-09-23T04:00:28.022Z,55.22
2022-09-23T04:01:04.200Z,53.20
2022-09-23T04:01:36.889Z,36.35
2022-09-23T04:02:16.766Z,50.40
2022-09-23T04:02:50.008Z,60.53
2022-09-23T04:03:22.909Z,63.47
2022-09-23T04:03:57.973Z,67.55
2022-09-23T04:04:34.324Z,60.75
2022-09-23T04:05:10.817Z,69.28
2022-09-23T04:05:43.482Z,46.60
2022-09-23T04:06:15.997Z,38.03
2022-09-23T04:06:51.151Z,48.40
2022-09-23T04:07:23.620Z,49.55
2022-09-23T04:07:56.898Z,61.50
2022-09-23T04:08:31.923Z,27.55
2022-09-23T04:09:04.614Z,48.63
2022-09-23T04:09:37.674Z,25.75
2022-09-23T04:10:13.750Z,45.75
2022-09-23T04:10:46.961Z,31.05
2022-09-23T04:11:20.262Z,22.98
2022-09-23T04:11:56.261Z,30.83
2022-09-23T04:12:28.834Z,40.28
2022-09-23T04:13:01.248Z,32.45
2022-09-23T04:13:36.288Z,48.65
2022-09-23T04:14:08.852Z,58.63
2022-09-23T04:14:41.576Z,27.50
2022-09-23T04:15:16.619Z,47.65
2022-09-23T04:15:50.641Z,48.67
2022-09-23T04:16:23.284Z,45.72
2022-09-23T04:16:58.821Z,49.10
2022-09-23T04:17:34.465Z,49.97
2022-09-23T04:18:06.898Z,36.95
2022-09-23T04:18:41.872Z,41.35
2022-09-23T04:19:15.154Z,39.40
2022-09-23T04:19:47.595Z,41.67
2022-09-23T04:20:22.620Z,47.15
2022-09-23T04:20:59.017Z,63.05
2022-09-23T04:21:31.526Z,55.78
2022-09-23T04:22:07.141Z,53.72
2022-09-23T04:22:39.705Z,53.95
2022-09-23T04:23:12.149Z,67.13
2022-09-23T04:23:47.199Z,34.17
2022-09-23T04:24:19.702Z,70.63
2022-09-23T04:24:52.247Z,71.70
2022-09-23T04:25:27.329Z,43.33
2022-09-23T04:25:59.766Z,55.53
2022-09-23T04:26:32.722Z,55.28
2022-09-23T04:27:08.205Z,62.15
2022-09-23T04:27:40.636Z,40.67
2022-09-23T04:28:13.270Z,42.50
2022-09-23T04:28:45.698Z,44.75
2022-09-23T04:29:20.728Z,34.35
2022-09-23T04:29:53.154Z,41.38
2022-09-23T04:30:25.602Z,67.53
2022-09-23T04:31:00.928Z,79.65
2022-09-23T04:31:34.593Z,58.53
2022-09-23T04:32:07.270Z,51.92
2022-09-23T04:32:44.986Z,76.00
2022-09-23T04:33:18.378Z,62.33
2022-09-23T04:33:50.975Z,93.53
2022-09-23T04:34:26.119Z,96.40
2022-09-23T04:34:58.588Z,47.75
2022-09-23T04:35:30.989Z,63.20
2022-09-23T04:36:06.186Z,73.72
2022-09-23T04:36:38.658Z,37.83
2022-09-23T04:37:13.796Z,57.53
2022-09-23T04:37:48.276Z,53.63
2022-09-23T04:38:20.759Z,57.58
2022-09-23T04:38:56.580Z,51.25
2022-09-23T04:39:29.138Z,52.17
2022-09-23T04:40:02.132Z,45.80
2022-09-23T04:40:38.852Z,60.80
2022-09-23T04:41:11.450Z,64.53
2022-09-23T04:41:44.761Z,85.00
2022-09-23T04:42:19.812Z,80.20
2022-09-23T04:42:52.196Z,45.25
2022-09-23T04:43:24.670Z,46.28
2022-09-23T04:44:00.331Z,91.43
2022-09-23T04:44:33.210Z,76.93
2022-09-23T04:45:06.506Z,45.60
2022-09-23T04:45:41.543Z,56.92
2022-09-23T04:46:15.737Z,43.42
2022-09-23T04:46:48.985Z,65.93
2022-09-23T04:47:24.195Z,75.28
2022-09-23T04:47:59.471Z,56.13
2022-09-23T04:48:32.195Z,66.90
2022-09-23T04:49:07.391Z,48.53
2022-09-23T04:49:40.871Z,121.80
2022-09-23T04:50:13.288Z,49.50
2022-09-23T04:50:48.989Z,87.13
2022-09-23T04:51:25.126Z,41.85
2022-09-23T04:52:00.238Z,78.30
2022-09-23T04:52:32.680Z,37.72
2022-09-23T04:53:05.273Z,71.82
2022-09-23T04:53:42.523Z,44.25
2022-09-23T04:54:15.132Z,69.43
2022-09-23T04:54:47.567Z,57.58
2022-09-23T04:55:23.174Z,68.35
2022-09-23T04:55:55.646Z,77.40
2022-09-23T04:56:30.412Z,59.58
2022-09-23T04:57:05.650Z,70.35
2022-09-23T04:57:38.088Z,52.88
2022-09-23T04:58:10.575Z,63.28
2022-09-23T04:58:46.471Z,61.58
2022-09-23T04:59:19.081Z,70.75
2022-09-23T04:59:51.506Z,52.47
2022-09-23T05:00:27.186Z,91.45
2022-09-23T05:01:04.970Z,53.85
2022-09-23T05:01:38.654Z,52.25
2022-09-23T05:02:14.401Z,40.85
2022-09-23T05:02:48.330Z,42.15
2022-09-23T05:03:23.984Z,44.20
2022-09-23T05:04:02.614Z,51.67
2022-09-23T05:04:35.651Z,83.93
2022-09-23T05:05:08.454Z,66.22
2022-09-23T05:05:40.919Z,68.10
2022-09-23T05:06:17.387Z,63.83
2022-09-23T05:06:49.824Z,69.28
2022-09-23T05:07:22.271Z,65.95
2022-09-23T05:07:58.220Z,68.30
2022-09-23T05:08:30.872Z,69.55
2022-09-23T05:09:09.031Z,56.58
2022-09-23T05:09:41.799Z,81.53
2022-09-23T05:10:14.541Z,76.60
2022-09-23T05:10:49.929Z,104.53
2022-09-23T05:11:23.380Z,112.18
2022-09-23T05:11:58.418Z,74.18
2022-09-23T05:12:30.844Z,71.80
2022-09-23T05:13:03.289Z,134.13
2022-09-23T05:13:38.486Z,104.20
2022-09-23T05:14:11.143Z,160.20
2022-09-23T05:14:43.941Z,62.80
2022-09-23T05:15:19.067Z,62.17
2022-09-23T05:15:58.054Z,90.95
2022-09-23T05:16:33.266Z,72.85
2022-09-23T05:17:05.753Z,88.28
2022-09-23T05:17:40.902Z,114.80
2022-09-23T05:18:15.168Z,71.10
2022-09-23T05:18:53.410Z,51.92
2022-09-23T05:19:28.472Z,49.17
2022-09-23T05:20:01.018Z,43.28
2022-09-23T05:20:33.457Z,55.80
2022-09-23T05:21:08.960Z,72.45
2022-09-23T05:21:41.399Z,77.78
2022-09-23T05:22:13.862Z,109.32
2022-09-23T05:22:48.877Z,106.30
2022-09-23T05:23:21.823Z,99.35
2022-09-23T05:24:00.869Z,67.43
2022-09-23T05:24:33.478Z,108.60
2022-09-23T05:25:06.655Z,56.92
2022-09-23T05:25:42.668Z,90.88
2022-09-23T05:26:15.480Z,57.63
2022-09-23T05:26:48.276Z,66.82
2022-09-23T05:27:23.702Z,82.88
2022-09-23T05:27:56.131Z,55.05
2022-09-23T05:28:30.132Z,60.35
2022-09-23T05:29:05.127Z,75.68
2022-09-23T05:29:38.765Z,96.18
2022-09-23T05:30:14.792Z,63.13
2022-09-23T05:30:47.251Z,44.95
2022-09-23T05:31:22.025Z,90.85
2022-09-23T05:31:57.205Z,96.80
2022-09-23T05:32:29.682Z,67.80
2022-09-23T05:33:02.930Z,50.38
2022-09-23T05:33:39.735Z,97.85
2022-09-23T05:34:14.778Z,83.82
2022-09-23T05:34:49.896Z,87.78
2022-09-23T05:35:22.571Z,45.05
2022-09-23T05:35:54.990Z,69.22
2022-09-23T05:36:36.890Z,52.08
2022-09-23T05:37:10.736Z,62.60
2022-09-23T05:37:45.784Z,72.10
2022-09-23T05:38:18.266Z,60.42
2022-09-23T05:38:53.750Z,52.38
2022-09-23T05:39:26.168Z,73.85
2022-09-23T05:39:58.610Z,54.28
2022-09-23T05:40:33.706Z,50.42
2022-09-23T05:41:07.703Z,57.85
2022-09-23T05:41:43.587Z,63.28
2022-09-23T05:42:21.380Z,96.03
2022-09-23T05:42:53.819Z,30.48
2022-09-23T05:43:28.007Z,93.63
2022-09-23T05:44:03.235Z,60.45
2022-09-23T05:44:35.675Z,54.63
2022-09-23T05:45:11.773Z,83.07
2022-09-23T05:45:44.420Z,83.10
2022-09-23T05:46:18.650Z,78.75
2022-09-23T05:46:53.745Z,52.63
2022-09-23T05:47:26.235Z,47.95
2022-09-23T05:47:59.068Z,47.70
2022-09-23T05:48:35.286Z,101.07
2022-09-23T05:49:08.248Z,55.15
2022-09-23T05:49:59.255Z,36.63
2022-09-23T05:50:32.708Z,43.40
2022-09-23T05:51:09.199Z,88.32
2022-09-23T05:51:44.227Z,50.70
2022-09-23T05:52:17.364Z,80.00
2022-09-23T05:52:49.875Z,68.03
2022-09-23T05:53:24.903Z,50.28
2022-09-23T05:53:58.466Z,82.75
2022-09-23T05:54:30.941Z,63.58
2022-09-23T05:55:06.031Z,48.65
2022-09-23T05:55:38.452Z,49.45
2022-09-23T05:56:11.645Z,45.80
2022-09-23T05:56:46.797Z,54.92
2022-09-23T05:57:19.985Z,54.67
2022-09-23T05:57:52.490Z,61.63
2022-09-23T05:58:27.950Z,93.15
2022-09-23T05:59:01.909Z,56.30
2022-09-23T05:59:34.404Z,75.93
2022-09-23T06:00:11.303Z,42.78
2022-09-23T06:00:46.307Z,65.38
2022-09-23T06:01:21.272Z,55.10
2022-09-23T06:01:56.768Z,78.65
2022-09-23T06:02:29.473Z,50.60
2022-09-23T06:03:02.030Z,62.00
2022-09-23T06:03:37.129Z,43.38
2022-09-23T06:04:14.427Z,104.70
2022-09-23T06:04:52.047Z,65.32
2022-09-23T06:05:24.552Z,65.38
2022-09-23T06:05:57.081Z,77.03
2022-09-23T06:06:34.064Z,58.90
2022-09-23T06:07:06.546Z,107.10
2022-09-23T06:07:41.619Z,66.25
2022-09-23T06:08:14.617Z,62.83
2022-09-23T06:08:47.882Z,96.00
2022-09-23T06:09:23.077Z,37.70
2022-09-23T06:09:55.473Z,68.75
2022-09-23T06:10:27.962Z,59.33
2022-09-23T06:11:09.441Z,60.80
2022-09-23T06:11:42.419Z,48.38
2022-09-23T06:12:17.502Z,62.72
2022-09-23T06:12:50.325Z,39.55
2022-09-23T06:13:22.904Z,45.70
2022-09-23T06:14:01.310Z,30.98
2022-09-23T06:14:33.962Z,48.67
2022-09-23T06:15:07.869Z,28.50
2022-09-23T06:15:43.932Z,29.27
2022-09-23T06:16:16.758Z,59.55
2022-09-23T06:16:51.810Z,46.35
2022-09-23T06:17:24.376Z,48.97
2022-09-23T06:17:56.816Z,57.20
2022-09-23T06:18:31.944Z,25.77
2022-09-23T06:19:06.713Z,38.60
2022-09-23T06:19:42.132Z,21.45
2022-09-23T06:20:17.340Z,31.65
2022-09-23T06:20:49.784Z,32.65
2022-09-23T06:21:24.849Z,36.33
2022-09-23T06:21:57.254Z,58.28
2022-09-23T06:22:34.474Z,48.72
2022-09-23T06:23:11.641Z,62.28
2022-09-23T06:23:45.533Z,46.70
2022-09-23T06:24:23.040Z,64.25
2022-09-23T06:24:57.408Z,78.70
2022-09-23T06:25:30.512Z,63.70
2022-09-23T06:26:06.689Z,47.53
2022-09-23T06:26:39.169Z,125.00
2022-09-23T06:27:11.588Z,60.45
2022-09-23T06:27:46.707Z,50.42
2022-09-23T06:28:19.554Z,75.85
2022-09-23T06:28:52.105Z,46.33
2022-09-23T06:29:27.249Z,85.05
2022-09-23T06:30:00.067Z,63.47
2022-09-23T06:30:34.300Z,47.47
2022-09-23T06:31:14.005Z,62.05
2022-09-23T06:31:49.212Z,94.10
2022-09-23T06:32:24.287Z,112.75
2022-09-23T06:32:58.293Z,61.33
2022-09-23T06:33:36.488Z,87.05
2022-09-23T06:34:14.372Z,105.32
2022-09-23T06:34:51.872Z,127.82
2022-09-23T06:35:28.325Z,96.72
2022-09-23T06:36:05.416Z,50.97
2022-09-23T06:36:43.965Z,83.47
2022-09-23T06:37:21.023Z,74.22
2022-09-23T06:37:54.335Z,102.63
2022-09-23T06:38:27.924Z,60.92
2022-09-23T06:39:03.045Z,80.63
2022-09-23T06:39:35.525Z,63.03
2022-09-23T06:40:08.943Z,72.95
2022-09-23T06:40:44.133Z,57.80
2022-09-23T06:41:17.236Z,72.05
2022-09-23T06:41:52.250Z,79.78
2022-09-23T06:42:24.883Z,64.43
2022-09-23T06:43:01.415Z,70.80
2022-09-23T06:43:36.595Z,58.63
2022-09-23T06:44:09.465Z,50.63
2022-09-23T06:44:44.535Z,103.82
2022-09-23T06:45:17.188Z,77.45
2022-09-23T06:45:53.420Z,127.28
2022-09-23T06:46:28.522Z,86.85
2022-09-23T06:47:01.063Z,67.13
2022-09-23T06:47:37.913Z,72.88
2022-09-23T06:48:10.380Z,48.08
2022-09-23T06:48:46.155Z,73.38
2022-09-23T06:49:22.826Z,91.95
2022-09-23T06:49:55.299Z,55.97
2022-09-23T06:50:32.966Z,54.22
2022-09-23T06:51:07.519Z,53.30
2022-09-23T06:51:42.841Z,54.45
2022-09-23T06:52:15.302Z,42.00
2022-09-23T06:52:51.623Z,40.78
2022-09-23T06:53:26.766Z,39.80
2022-09-23T06:53:59.196Z,43.05
2022-09-23T06:54:34.520Z,52.95
2022-09-23T06:55:08.308Z,58.13
2022-09-23T06:55:41.484Z,35.65
2022-09-23T06:56:17.543Z,59.90
2022-09-23T06:56:49.962Z,48.92
2022-09-23T06:57:24.960Z,48.85
2022-09-23T06:57:58.789Z,39.33
2022-09-23T06:58:32.422Z,33.80
2022-09-23T06:59:07.566Z,48.33
2022-09-23T06:59:40.241Z,31.65
2022-09-23T07:00:16.750Z,54.83
2022-09-23T07:00:49.323Z,79.00
2022-09-23T07:01:24.465Z,69.60
2022-09-23T07:01:56.960Z,62.50
2022-09-23T07:02:29.750Z,73.55
2022-09-23T07:03:05.014Z,58.65
2022-09-23T07:03:38.511Z,56.58
2022-09-23T07:04:13.560Z,38.88
2022-09-23T07:04:46.026Z,55.47
2022-09-23T07:05:18.835Z,41.38
2022-09-23T07:05:57.530Z,38.05
2022-09-23T07:06:30.144Z,56.42
2022-09-23T07:07:05.153Z,59.38
2022-09-23T07:07:38.413Z,65.13
2022-09-23T07:08:10.862Z,31.88
2022-09-23T07:08:47.606Z,38.13
2022-09-23T07:09:20.316Z,61.30
2022-09-23T07:09:55.388Z,23.52
2022-09-23T07:10:29.301Z,48.17
2022-09-23T07:11:06.343Z,93.28
2022-09-23T07:11:39.997Z,35.58
2022-09-23T07:12:15.581Z,84.78
2022-09-23T07:12:48.011Z,64.80
2022-09-23T07:13:20.630Z,51.15
2022-09-23T07:13:55.701Z,30.20
2022-09-23T07:14:28.133Z,47.33
2022-09-23T07:15:00.562Z,59.63
2022-09-23T07:15:36.620Z,43.00
2022-09-23T07:16:09.865Z,37.17
2022-09-23T07:16:45.014Z,29.08
2022-09-23T07:17:17.399Z,25.20
2022-09-23T07:17:50.070Z,43.58
2022-09-23T07:18:26.074Z,56.78
2022-09-23T07:18:58.776Z,51.55
2022-09-23T07:19:31.262Z,71.18
2022-09-23T07:20:06.647Z,66.55
2022-09-23T07:20:39.079Z,68.20
2022-09-23T07:21:18.183Z,50.53
2022-09-23T07:21:50.723Z,37.92
2022-09-23T07:22:25.107Z,51.67
2022-09-23T07:23:00.137Z,59.00
2022-09-23T07:23:33.666Z,51.78
2022-09-23T07:24:09.289Z,53.53
2022-09-23T07:24:41.838Z,63.78
2022-09-23T07:25:14.333Z,77.28
2022-09-23T07:25:51.934Z,39.22
2022-09-23T07:26:25.759Z,29.73
2022-09-23T07:26:58.283Z,62.95
2022-09-23T07:27:33.536Z,39.33
2022-09-23T07:28:07.119Z,47.45
2022-09-23T07:28:42.561Z,48.28
2022-09-23T07:29:15.536Z,78.45
2022-09-23T07:29:51.990Z,44.38
2022-09-23T07:30:25.609Z,41.47
2022-09-23T07:31:05.018Z,26.88
2022-09-23T07:31:39.957Z,45.40
2022-09-23T07:32:14.381Z,37.00
2022-09-23T07:32:49.716Z,38.20
2022-09-23T07:33:31.575Z,29.67
2022-09-23T07:34:08.389Z,38.80
2022-09-23T07:34:40.926Z,55.08
2022-09-23T07:35:17.004Z,41.58
2022-09-23T07:35:49.434Z,38.80
2022-09-23T07:36:24.784Z,67.78
2022-09-23T07:36:59.817Z,29.10
2022-09-23T07:37:32.303Z,45.08
2022-09-23T07:38:07.348Z,43.75
2022-09-23T07:38:45.124Z,53.25
2022-09-23T07:39:20.781Z,58.85
2022-09-23T07:39:53.189Z,67.07
2022-09-23T07:40:28.437Z,24.88
2022-09-23T07:41:02.768Z,39.65
2022-09-23T07:41:38.233Z,34.42
2022-09-23T07:42:13.396Z,35.08
2022-09-23T07:42:48.521Z,24.55
2022-09-23T07:43:21.116Z,21.30
2022-09-23T07:43:55.675Z,30.33
2022-09-23T07:44:32.096Z,50.00
2022-09-23T07:45:07.023Z,67.85
2022-09-23T07:45:43.717Z,44.97
2022-09-23T07:46:18.069Z,39.28
2022-09-23T07:46:53.172Z,45.33
2022-09-23T07:47:25.703Z,42.67